sensor_id;sensor_type;location;lat;lon;timestamp;temperature;humidity
4090;DHT22;2059;48.538;12.146;2022-09-13T00:00:29;15.50;99.90
4090;DHT22;2059;48.538;12.146;2022-09-13T00:05:31;15.40;99.90
4090;DHT22;2059;48.538;12.146;2022-09-13T00:10:36;15.40;99.90
4090;DHT22;2059;48.538;12.146;2022-09-13T00:15:42;15.10;99.90
4090;DHT22;2059;48.538;12.146;2022-09-13T00:20:44;15.20;99.90
4090;DHT22;2059;48.538;12.146;2022-09-13T00:25:47;15.20;99.90
4090;DHT22;2059;48.538;12.146;2022-09-13T00:30:49;15.20;99.90
4090;DHT22;2059;48.538;12.146;2022-09-13T00:35:51;15.10;99.90
4090;DHT22;2059;48.538;12.146;2022-09-13T00:40:54;15.20;99.90
4090;DHT22;2059;48.538;12.146;2022-09-13T00:45:56;15.10;99.90
4090;DHT22;2059;48.538;12.146;2022-09-13T00:50:58;15.10;99.90
4090;DHT22;2059;48.538;12.146;2022-09-13T00:56:04;15.10;99.90
4090;DHT22;2059;48.538;12.146;2022-09-13T01:01:11;15.10;99.90
4090;DHT22;2059;48.538;12.146;2022-09-13T01:06:17;15.10;99.90
4090;DHT22;2059;48.538;12.146;2022-09-13T01:11:32;15.00;99.90
4090;DHT22;2059;48.538;12.146;2022-09-13T01:16:36;15.00;99.90
4090;DHT22;2059;48.538;12.146;2022-09-13T01:22:04;14.90;99.90
4090;DHT22;2059;48.538;12.146;2022-09-13T01:33:00;14.70;99.90
4090;DHT22;2059;48.538;12.146;2022-09-13T01:38:13;14.70;99.90
4090;DHT22;2059;48.538;12.146;2022-09-13T01:43:26;14.80;99.90
4090;DHT22;2059;48.538;12.146;2022-09-13T01:48:43;14.70;99.90
4090;DHT22;2059;48.538;12.146;2022-09-13T01:53:52;14.70;99.90
4090;DHT22;2059;48.538;12.146;2022-09-13T01:58:59;14.60;99.90
4090;DHT22;2059;48.538;12.146;2022-09-13T02:04:05;14.60;99.90
4090;DHT22;2059;48.538;12.146;2022-09-13T02:09:12;14.60;99.90
4090;DHT22;2059;48.538;12.146;2022-09-13T02:14:17;14.40;99.90
4090;DHT22;2059;48.538;12.146;2022-09-13T02:19:26;14.40;99.90
4090;DHT22;2059;48.538;12.146;2022-09-13T02:24:31;14.40;99.90
4090;DHT22;2059;48.538;12.146;2022-09-13T02:29:36;14.50;99.90
4090;DHT22;2059;48.538;12.146;2022-09-13T02:34:42;14.50;99.90
4090;DHT22;2059;48.538;12.146;2022-09-13T02:39:49;14.50;99.90
4090;DHT22;2059;48.538;12.146;2022-09-13T02:44:53;14.40;99.90
4090;DHT22;2059;48.538;12.146;2022-09-13T02:50:23;14.40;99.90
4090;DHT22;2059;48.538;12.146;2022-09-13T02:55:31;14.40;99.90
4090;DHT22;2059;48.538;12.146;2022-09-13T03:00:39;14.60;99.90
4090;DHT22;2059;48.538;12.146;2022-09-13T03:05:43;14.40;99.90
4090;DHT22;2059;48.538;12.146;2022-09-13T03:10:54;14.20;99.90
4090;DHT22;2059;48.538;12.146;2022-09-13T03:16:05;14.10;99.90
4090;DHT22;2059;48.538;12.146;2022-09-13T03:21:22;14.10;99.90
4090;DHT22;2059;48.538;12.146;2022-09-13T03:26:37;14.20;99.90
4090;DHT22;2059;48.538;12.146;2022-09-13T03:31:46;14.10;99.90
4090;DHT22;2059;48.538;12.146;2022-09-13T03:36:55;14.10;99.90
4090;DHT22;2059;48.538;12.146;2022-09-13T03:42:02;14.10;99.90
4090;DHT22;2059;48.538;12.146;2022-09-13T03:47:07;14.00;99.90
4090;DHT22;2059;48.538;12.146;2022-09-13T03:52:11;14.10;99.90
4090;DHT22;2059;48.538;12.146;2022-09-13T03:57:15;13.90;99.90
4090;DHT22;2059;48.538;12.146;2022-09-13T04:02:18;13.90;99.90
4090;DHT22;2059;48.538;12.146;2022-09-13T04:07:22;14.00;99.90
4090;DHT22;2059;48.538;12.146;2022-09-13T04:12:24;13.70;99.90
4090;DHT22;2059;48.538;12.146;2022-09-13T04:17:26;13.90;99.90
4090;DHT22;2059;48.538;12.146;2022-09-13T04:22:29;14.00;99.90
4090;DHT22;2059;48.538;12.146;2022-09-13T04:27:33;13.80;99.90
4090;DHT22;2059;48.538;12.146;2022-09-13T04:32:35;13.80;99.90
4090;DHT22;2059;48.538;12.146;2022-09-13T04:37:38;13.60;99.90
4090;DHT22;2059;48.538;12.146;2022-09-13T04:42:40;13.60;99.90
4090;DHT22;2059;48.538;12.146;2022-09-13T04:47:42;13.60;99.90
4090;DHT22;2059;48.538;12.146;2022-09-13T04:52:45;13.50;99.90
4090;DHT22;2059;48.538;12.146;2022-09-13T04:57:47;13.50;99.90
4090;DHT22;2059;48.538;12.146;2022-09-13T05:02:55;13.60;99.90
4090;DHT22;2059;48.538;12.146;2022-09-13T05:07:58;13.60;99.90
4090;DHT22;2059;48.538;12.146;2022-09-13T05:13:00;13.70;99.90
4090;DHT22;2059;48.538;12.146;2022-09-13T05:18:02;13.60;99.90
4090;DHT22;2059;48.538;12.146;2022-09-13T05:23:05;13.60;99.90
4090;DHT22;2059;48.538;12.146;2022-09-13T05:28:07;13.70;99.90
4090;DHT22;2059;48.538;12.146;2022-09-13T05:33:09;13.60;99.90
4090;DHT22;2059;48.538;12.146;2022-09-13T05:38:12;13.90;99.90
4090;DHT22;2059;48.538;12.146;2022-09-13T05:43:14;13.80;99.90
4090;DHT22;2059;48.538;12.146;2022-09-13T05:48:15;13.80;99.90
4090;DHT22;2059;48.538;12.146;2022-09-13T05:53:19;13.90;99.90
4090;DHT22;2059;48.538;12.146;2022-09-13T05:58:20;14.10;99.90
4090;DHT22;2059;48.538;12.146;2022-09-13T06:03:23;14.20;99.90
4090;DHT22;2059;48.538;12.146;2022-09-13T06:08:28;14.30;99.90
4090;DHT22;2059;48.538;12.146;2022-09-13T06:13:31;14.30;99.90
4090;DHT22;2059;48.538;12.146;2022-09-13T06:18:33;14.20;99.90
4090;DHT22;2059;48.538;12.146;2022-09-13T06:23:36;14.40;99.90
4090;DHT22;2059;48.538;12.146;2022-09-13T06:28:39;14.60;99.90
4090;DHT22;2059;48.538;12.146;2022-09-13T06:33:42;14.70;99.90
4090;DHT22;2059;48.538;12.146;2022-09-13T06:38:46;14.90;99.90
4090;DHT22;2059;48.538;12.146;2022-09-13T06:43:52;15.10;99.90
4090;DHT22;2059;48.538;12.146;2022-09-13T06:48:54;15.40;99.90
4090;DHT22;2059;48.538;12.146;2022-09-13T06:54:00;15.70;99.90
4090;DHT22;2059;48.538;12.146;2022-09-13T06:59:04;15.90;99.90
4090;DHT22;2059;48.538;12.146;2022-09-13T07:04:08;16.00;99.90
4090;DHT22;2059;48.538;12.146;2022-09-13T07:09:13;16.20;99.90
4090;DHT22;2059;48.538;12.146;2022-09-13T07:14:18;16.50;99.90
4090;DHT22;2059;48.538;12.146;2022-09-13T07:19:21;16.80;99.90
4090;DHT22;2059;48.538;12.146;2022-09-13T07:24:25;17.10;99.90
4090;DHT22;2059;48.538;12.146;2022-09-13T07:29:27;17.40;99.90
4090;DHT22;2059;48.538;12.146;2022-09-13T07:34:29;17.70;99.90
4090;DHT22;2059;48.538;12.146;2022-09-13T07:39:32;18.00;99.90
4090;DHT22;2059;48.538;12.146;2022-09-13T07:44:33;18.30;99.90
4090;DHT22;2059;48.538;12.146;2022-09-13T07:49:35;18.50;99.90
4090;DHT22;2059;48.538;12.146;2022-09-13T07:54:38;18.80;99.90
4090;DHT22;2059;48.538;12.146;2022-09-13T07:59:40;19.00;99.90
4090;DHT22;2059;48.538;12.146;2022-09-13T08:04:42;19.40;99.90
4090;DHT22;2059;48.538;12.146;2022-09-13T08:09:45;19.60;99.90
4090;DHT22;2059;48.538;12.146;2022-09-13T08:14:46;19.90;99.90
4090;DHT22;2059;48.538;12.146;2022-09-13T08:19:48;20.10;99.90
4090;DHT22;2059;48.538;12.146;2022-09-13T08:24:51;20.10;99.90
4090;DHT22;2059;48.538;12.146;2022-09-13T08:29:53;20.10;99.90
4090;DHT22;2059;48.538;12.146;2022-09-13T08:34:55;20.10;99.90
4090;DHT22;2059;48.538;12.146;2022-09-13T08:39:58;20.20;99.90
4090;DHT22;2059;48.538;12.146;2022-09-13T08:45:00;20.20;99.90
4090;DHT22;2059;48.538;12.146;2022-09-13T08:50:11;20.30;99.90
4090;DHT22;2059;48.538;12.146;2022-09-13T08:55:26;20.50;99.90
4090;DHT22;2059;48.538;12.146;2022-09-13T09:00:33;20.70;99.90
4090;DHT22;2059;48.538;12.146;2022-09-13T09:05:43;21.00;99.90
4090;DHT22;2059;48.538;12.146;2022-09-13T09:10:50;21.10;99.90
4090;DHT22;2059;48.538;12.146;2022-09-13T09:15:56;21.40;99.40
4090;DHT22;2059;48.538;12.146;2022-09-13T09:21:00;21.70;99.20
4090;DHT22;2059;48.538;12.146;2022-09-13T09:26:13;21.90;99.10
4090;DHT22;2059;48.538;12.146;2022-09-13T09:31:19;22.20;98.70
4090;DHT22;2059;48.538;12.146;2022-09-13T09:36:29;22.40;98.00
4090;DHT22;2059;48.538;12.146;2022-09-13T09:41:35;22.70;98.80
4090;DHT22;2059;48.538;12.146;2022-09-13T09:46:39;22.90;98.10
4090;DHT22;2059;48.538;12.146;2022-09-13T09:51:41;23.00;97.70
4090;DHT22;2059;48.538;12.146;2022-09-13T09:56:52;22.90;97.70
4090;DHT22;2059;48.538;12.146;2022-09-13T10:01:54;23.20;97.70
4090;DHT22;2059;48.538;12.146;2022-09-13T10:07:17;23.60;97.70
4090;DHT22;2059;48.538;12.146;2022-09-13T10:12:31;23.90;96.90
4090;DHT22;2059;48.538;12.146;2022-09-13T10:17:34;24.20;96.20
4090;DHT22;2059;48.538;12.146;2022-09-13T10:22:36;24.40;95.70
4090;DHT22;2059;48.538;12.146;2022-09-13T10:27:41;24.40;94.70
4090;DHT22;2059;48.538;12.146;2022-09-13T10:32:54;24.40;95.20
4090;DHT22;2059;48.538;12.146;2022-09-13T10:37:56;24.90;95.10
4090;DHT22;2059;48.538;12.146;2022-09-13T10:43:02;25.00;93.80
4090;DHT22;2059;48.538;12.146;2022-09-13T10:48:10;24.90;94.50
4090;DHT22;2059;48.538;12.146;2022-09-13T10:53:32;24.60;93.80
4090;DHT22;2059;48.538;12.146;2022-09-13T10:58:35;24.90;94.40
4090;DHT22;2059;48.538;12.146;2022-09-13T11:09:20;25.10;95.40
4090;DHT22;2059;48.538;12.146;2022-09-13T11:14:35;25.20;94.10
4090;DHT22;2059;48.538;12.146;2022-09-13T11:25:28;24.80;94.20
4090;DHT22;2059;48.538;12.146;2022-09-13T11:30:37;24.50;93.90
4090;DHT22;2059;48.538;12.146;2022-09-13T11:35:50;24.30;94.10
4090;DHT22;2059;48.538;12.146;2022-09-13T11:40:58;24.00;94.80
4090;DHT22;2059;48.538;12.146;2022-09-13T11:46:09;24.00;95.50
4090;DHT22;2059;48.538;12.146;2022-09-13T11:51:23;23.90;95.10
4090;DHT22;2059;48.538;12.146;2022-09-13T11:56:31;23.80;95.00
4090;DHT22;2059;48.538;12.146;2022-09-13T12:01:40;23.80;95.60
4090;DHT22;2059;48.538;12.146;2022-09-13T12:06:47;23.70;95.20
4090;DHT22;2059;48.538;12.146;2022-09-13T12:11:54;23.70;95.40
4090;DHT22;2059;48.538;12.146;2022-09-13T12:17:05;23.70;95.30
4090;DHT22;2059;48.538;12.146;2022-09-13T12:22:08;23.70;95.60
4090;DHT22;2059;48.538;12.146;2022-09-13T12:27:21;23.60;95.50
4090;DHT22;2059;48.538;12.146;2022-09-13T12:32:26;23.70;95.80
4090;DHT22;2059;48.538;12.146;2022-09-13T12:37:48;23.70;95.90
4090;DHT22;2059;48.538;12.146;2022-09-13T12:48:47;23.70;95.80
4090;DHT22;2059;48.538;12.146;2022-09-13T12:54:12;23.70;95.30
4090;DHT22;2059;48.538;12.146;2022-09-13T12:59:28;23.50;95.50
4090;DHT22;2059;48.538;12.146;2022-09-13T13:04:36;23.60;96.40
4090;DHT22;2059;48.538;12.146;2022-09-13T13:09:39;23.70;96.30
4090;DHT22;2059;48.538;12.146;2022-09-13T13:14:47;23.70;96.80
4090;DHT22;2059;48.538;12.146;2022-09-13T13:19:54;23.90;96.20
4090;DHT22;2059;48.538;12.146;2022-09-13T13:24:56;24.00;96.30
4090;DHT22;2059;48.538;12.146;2022-09-13T13:35:34;24.40;95.30
4090;DHT22;2059;48.538;12.146;2022-09-13T13:40:37;24.60;95.60
4090;DHT22;2059;48.538;12.146;2022-09-13T13:45:55;24.70;94.90
4090;DHT22;2059;48.538;12.146;2022-09-13T13:51:22;24.60;95.00
4090;DHT22;2059;48.538;12.146;2022-09-13T14:01:30;24.60;95.50
4090;DHT22;2059;48.538;12.146;2022-09-13T14:06:41;24.60;95.40
4090;DHT22;2059;48.538;12.146;2022-09-13T14:11:54;24.90;95.30
4090;DHT22;2059;48.538;12.146;2022-09-13T14:17:13;25.20;95.00
4090;DHT22;2059;48.538;12.146;2022-09-13T14:22:25;25.10;94.60
4090;DHT22;2059;48.538;12.146;2022-09-13T14:27:29;25.10;95.00
4090;DHT22;2059;48.538;12.146;2022-09-13T14:32:41;25.00;95.00
4090;DHT22;2059;48.538;12.146;2022-09-13T14:37:45;24.80;94.50
4090;DHT22;2059;48.538;12.146;2022-09-13T14:42:48;24.70;94.80
4090;DHT22;2059;48.538;12.146;2022-09-13T14:47:54;24.60;94.60
4090;DHT22;2059;48.538;12.146;2022-09-13T14:53:01;24.60;95.80
4090;DHT22;2059;48.538;12.146;2022-09-13T14:58:07;24.50;95.30
4090;DHT22;2059;48.538;12.146;2022-09-13T15:03:15;24.40;95.90
4090;DHT22;2059;48.538;12.146;2022-09-13T15:08:42;24.30;96.10
4090;DHT22;2059;48.538;12.146;2022-09-13T15:13:44;24.20;96.70
4090;DHT22;2059;48.538;12.146;2022-09-13T15:18:46;24.00;97.00
4090;DHT22;2059;48.538;12.146;2022-09-13T15:23:50;23.90;97.10
4090;DHT22;2059;48.538;12.146;2022-09-13T17:17:25;22.10;99.90
4090;DHT22;2059;48.538;12.146;2022-09-13T17:22:27;22.00;99.90
4090;DHT22;2059;48.538;12.146;2022-09-13T17:27:29;21.90;99.90
4090;DHT22;2059;48.538;12.146;2022-09-13T17:32:32;21.90;99.90
4090;DHT22;2059;48.538;12.146;2022-09-13T17:37:34;21.80;99.90
4090;DHT22;2059;48.538;12.146;2022-09-13T17:42:35;21.80;99.90
4090;DHT22;2059;48.538;12.146;2022-09-13T17:47:38;21.70;99.90
4090;DHT22;2059;48.538;12.146;2022-09-13T17:52:40;21.70;99.90
4090;DHT22;2059;48.538;12.146;2022-09-13T17:57:42;21.60;99.90
4090;DHT22;2059;48.538;12.146;2022-09-13T18:02:45;21.60;99.90
4090;DHT22;2059;48.538;12.146;2022-09-13T18:07:47;21.50;99.90
4090;DHT22;2059;48.538;12.146;2022-09-13T18:12:48;21.50;99.90
4090;DHT22;2059;48.538;12.146;2022-09-13T18:17:51;21.50;99.90
4090;DHT22;2059;48.538;12.146;2022-09-13T18:22:53;21.40;99.90
4090;DHT22;2059;48.538;12.146;2022-09-13T18:27:55;21.30;99.90
4090;DHT22;2059;48.538;12.146;2022-09-13T18:32:58;21.30;99.90
4090;DHT22;2059;48.538;12.146;2022-09-13T18:38:00;21.30;99.90
4090;DHT22;2059;48.538;12.146;2022-09-13T18:43:01;21.30;99.90
4090;DHT22;2059;48.538;12.146;2022-09-13T18:48:04;21.20;99.90
4090;DHT22;2059;48.538;12.146;2022-09-13T18:53:06;21.20;99.90
4090;DHT22;2059;48.538;12.146;2022-09-13T18:58:08;21.10;99.90
4090;DHT22;2059;48.538;12.146;2022-09-13T19:03:12;21.10;99.90
4090;DHT22;2059;48.538;12.146;2022-09-13T19:08:13;21.00;99.90
4090;DHT22;2059;48.538;12.146;2022-09-13T19:13:15;20.90;99.90
4090;DHT22;2059;48.538;12.146;2022-09-13T19:18:18;20.90;99.90
4090;DHT22;2059;48.538;12.146;2022-09-13T19:23:20;20.80;99.90
4090;DHT22;2059;48.538;12.146;2022-09-13T19:28:22;20.70;99.90
4090;DHT22;2059;48.538;12.146;2022-09-13T19:33:25;20.70;99.90
4090;DHT22;2059;48.538;12.146;2022-09-13T19:38:28;20.60;99.90
4090;DHT22;2059;48.538;12.146;2022-09-13T19:43:31;20.50;99.90
4090;DHT22;2059;48.538;12.146;2022-09-13T19:48:38;20.50;99.90
4090;DHT22;2059;48.538;12.146;2022-09-13T19:53:41;20.50;99.90
4090;DHT22;2059;48.538;12.146;2022-09-13T19:58:43;20.40;99.90
4090;DHT22;2059;48.538;12.146;2022-09-13T20:03:51;20.40;99.90
4090;DHT22;2059;48.538;12.146;2022-09-13T20:08:57;20.30;99.90
4090;DHT22;2059;48.538;12.146;2022-09-13T20:13:59;20.30;99.90
4090;DHT22;2059;48.538;12.146;2022-09-13T20:19:05;20.20;99.90
4090;DHT22;2059;48.538;12.146;2022-09-13T20:24:07;20.20;99.90
4090;DHT22;2059;48.538;12.146;2022-09-13T20:29:09;20.20;99.90
4090;DHT22;2059;48.538;12.146;2022-09-13T20:34:13;20.10;99.90
4090;DHT22;2059;48.538;12.146;2022-09-13T20:39:15;20.00;99.90
4090;DHT22;2059;48.538;12.146;2022-09-13T20:44:17;20.00;99.90
4090;DHT22;2059;48.538;12.146;2022-09-13T20:49:20;20.00;99.90
4090;DHT22;2059;48.538;12.146;2022-09-13T20:54:22;19.90;99.90
4090;DHT22;2059;48.538;12.146;2022-09-13T20:59:24;19.80;99.90
4090;DHT22;2059;48.538;12.146;2022-09-13T21:04:27;19.80;99.90
4090;DHT22;2059;48.538;12.146;2022-09-13T21:09:29;19.70;99.90
4090;DHT22;2059;48.538;12.146;2022-09-13T21:14:31;19.70;99.90
4090;DHT22;2059;48.538;12.146;2022-09-13T21:19:34;19.60;99.90
4090;DHT22;2059;48.538;12.146;2022-09-13T21:24:36;19.60;99.90
4090;DHT22;2059;48.538;12.146;2022-09-13T21:29:38;19.50;99.90
4090;DHT22;2059;48.538;12.146;2022-09-13T21:34:41;19.50;99.90
4090;DHT22;2059;48.538;12.146;2022-09-13T21:39:43;19.50;99.90
4090;DHT22;2059;48.538;12.146;2022-09-13T21:44:45;19.40;99.90
4090;DHT22;2059;48.538;12.146;2022-09-13T21:49:48;19.40;99.90
4090;DHT22;2059;48.538;12.146;2022-09-13T21:54:51;19.30;99.90
4090;DHT22;2059;48.538;12.146;2022-09-13T21:59:52;19.30;99.90
4090;DHT22;2059;48.538;12.146;2022-09-13T22:04:55;19.30;99.90
4090;DHT22;2059;48.538;12.146;2022-09-13T22:09:57;19.30;99.90
4090;DHT22;2059;48.538;12.146;2022-09-13T22:14:59;19.30;99.90
4090;DHT22;2059;48.538;12.146;2022-09-13T22:20:02;19.30;99.90
4090;DHT22;2059;48.538;12.146;2022-09-13T22:25:05;19.20;99.90
4090;DHT22;2059;48.538;12.146;2022-09-13T22:30:08;19.20;99.90
4090;DHT22;2059;48.538;12.146;2022-09-13T22:35:11;19.10;99.90
4090;DHT22;2059;48.538;12.146;2022-09-13T22:40:13;19.00;99.90
4090;DHT22;2059;48.538;12.146;2022-09-13T22:45:15;19.00;99.90
4090;DHT22;2059;48.538;12.146;2022-09-13T22:50:18;18.90;99.90
4090;DHT22;2059;48.538;12.146;2022-09-13T22:55:20;18.90;99.90
4090;DHT22;2059;48.538;12.146;2022-09-13T23:00:22;18.90;99.90
4090;DHT22;2059;48.538;12.146;2022-09-13T23:05:25;18.90;99.90
4090;DHT22;2059;48.538;12.146;2022-09-13T23:10:27;18.80;99.90
4090;DHT22;2059;48.538;12.146;2022-09-13T23:15:29;18.80;99.90
4090;DHT22;2059;48.538;12.146;2022-09-13T23:20:32;18.80;99.90
4090;DHT22;2059;48.538;12.146;2022-09-13T23:25:34;18.70;99.90
4090;DHT22;2059;48.538;12.146;2022-09-13T23:30:35;18.70;99.90
4090;DHT22;2059;48.538;12.146;2022-09-13T23:35:39;18.80;99.90
4090;DHT22;2059;48.538;12.146;2022-09-13T23:40:40;18.80;99.90
4090;DHT22;2059;48.538;12.146;2022-09-13T23:45:42;18.80;99.90
4090;DHT22;2059;48.538;12.146;2022-09-13T23:50:45;18.90;99.90
4090;DHT22;2059;48.538;12.146;2022-09-13T23:55:47;18.90;99.90
